sensor_id;sensor_type;location;lat;lon;timestamp;pressure;altitude;pressure_sealevel;temperature;humidity
54556;BME280;57291;37.520;15.106;2023-07-29T00:01:58;101022.69;;;27.03;63.62
54556;BME280;57291;37.520;15.106;2023-07-29T00:04:25;101021.09;;;27.02;64.48
54556;BME280;57291;37.520;15.106;2023-07-29T00:06:52;101017.13;;;26.96;64.21
54556;BME280;57291;37.520;15.106;2023-07-29T00:09:19;101025.09;;;26.94;64.66
54556;BME280;57291;37.520;15.106;2023-07-29T00:11:46;101011.56;;;26.92;64.93
54556;BME280;57291;37.520;15.106;2023-07-29T00:14:14;101015.53;;;26.87;65.12
54556;BME280;57291;37.520;15.106;2023-07-29T00:16:41;101013.94;;;26.86;65.42
54556;BME280;57291;37.520;15.106;2023-07-29T00:19:09;101011.16;;;26.83;65.32
54556;BME280;57291;37.520;15.106;2023-07-29T00:21:36;101013.97;;;26.79;65.61
54556;BME280;57291;37.520;15.106;2023-07-29T00:24:04;101011.97;;;26.80;65.56
54556;BME280;57291;37.520;15.106;2023-07-29T00:26:31;101009.56;;;26.78;66.11
54556;BME280;57291;37.520;15.106;2023-07-29T00:28:59;101004.41;;;26.77;66.13
54556;BME280;57291;37.520;15.106;2023-07-29T00:31:27;101004.00;;;26.71;66.14
54556;BME280;57291;37.520;15.106;2023-07-29T00:33:54;101010.38;;;26.68;66.21
54556;BME280;57291;37.520;15.106;2023-07-29T00:36:22;101006.78;;;26.67;66.38
54556;BME280;57291;37.520;15.106;2023-07-29T00:38:50;101005.22;;;26.63;66.15
54556;BME280;57291;37.520;15.106;2023-07-29T00:41:17;101002.00;;;26.64;66.08
54556;BME280;57291;37.520;15.106;2023-07-29T00:43:45;101001.22;;;26.64;66.10
54556;BME280;57291;37.520;15.106;2023-07-29T00:46:12;101001.22;;;26.64;66.27
54556;BME280;57291;37.520;15.106;2023-07-29T00:48:39;100987.69;;;26.62;66.14
54556;BME280;57291;37.520;15.106;2023-07-29T00:51:07;100986.06;;;26.61;66.31
54556;BME280;57291;37.520;15.106;2023-07-29T00:53:34;100986.50;;;26.60;66.09
54556;BME280;57291;37.520;15.106;2023-07-29T00:56:01;100988.06;;;26.61;66.54
54556;BME280;57291;37.520;15.106;2023-07-29T00:58:28;100982.91;;;26.59;66.40
54556;BME280;57291;37.520;15.106;2023-07-29T01:00:56;100984.50;;;26.57;66.88
54556;BME280;57291;37.520;15.106;2023-07-29T01:03:23;100973.72;;;26.55;67.00
54556;BME280;57291;37.520;15.106;2023-07-29T01:06:01;100972.56;;;26.56;67.46
54556;BME280;57291;37.520;15.106;2023-07-29T01:09:04;100976.13;;;26.53;67.80
54556;BME280;57291;37.520;15.106;2023-07-29T01:15:11;100967.78;;;26.50;67.50
54556;BME280;57291;37.520;15.106;2023-07-29T01:17:33;100974.94;;;26.51;67.56
54556;BME280;57291;37.520;15.106;2023-07-29T01:22:37;100967.78;;;26.50;67.50
54556;BME280;57291;37.520;15.106;2023-07-29T01:25:04;100964.59;;;26.48;67.94
54556;BME280;57291;37.520;15.106;2023-07-29T01:27:31;100974.13;;;26.47;68.04
54556;BME280;57291;37.520;15.106;2023-07-29T01:30:00;100972.53;;;26.46;68.00
54556;BME280;57291;37.520;15.106;2023-07-29T01:37:37;100976.13;;;26.42;67.83
54556;BME280;57291;37.520;15.106;2023-07-29T01:40:07;100961.38;;;26.42;68.04
54556;BME280;57291;37.520;15.106;2023-07-29T01:42:35;100960.19;;;26.39;67.60
54556;BME280;57291;37.520;15.106;2023-07-29T01:45:04;100970.50;;;26.39;67.94
54556;BME280;57291;37.520;15.106;2023-07-29T01:47:32;100967.72;;;26.35;68.23
54556;BME280;57291;37.520;15.106;2023-07-29T01:49:59;100971.72;;;26.34;68.05
54556;BME280;57291;37.520;15.106;2023-07-29T01:52:26;100976.88;;;26.32;67.83
54556;BME280;57291;37.520;15.106;2023-07-29T01:54:53;100978.88;;;26.35;68.44
54556;BME280;57291;37.520;15.106;2023-07-29T01:57:20;100979.69;;;26.39;68.15
54556;BME280;57291;37.520;15.106;2023-07-29T01:59:47;100963.78;;;26.40;68.10
54556;BME280;57291;37.520;15.106;2023-07-29T02:02:15;100970.94;;;26.41;67.39
54556;BME280;57291;37.520;15.106;2023-07-29T02:04:42;100973.72;;;26.37;67.59
54556;BME280;57291;37.520;15.106;2023-07-29T02:07:09;100956.59;;;26.32;68.06
54556;BME280;57291;37.520;15.106;2023-07-29T02:09:37;100961.78;;;26.26;67.81
54556;BME280;57291;37.520;15.106;2023-07-29T02:12:04;100965.75;;;26.22;67.95
54556;BME280;57291;37.520;15.106;2023-07-29T02:14:36;100970.94;;;26.19;67.78
54556;BME280;57291;37.520;15.106;2023-07-29T02:17:03;100964.16;;;26.20;68.64
54556;BME280;57291;37.520;15.106;2023-07-29T02:19:31;100962.16;;;26.21;69.28
54556;BME280;57291;37.520;15.106;2023-07-29T02:21:58;100966.94;;;26.31;70.12
54556;BME280;57291;37.520;15.106;2023-07-29T02:24:25;100960.97;;;26.33;69.80
54556;BME280;57291;37.520;15.106;2023-07-29T02:26:52;100967.72;;;26.32;70.31
54556;BME280;57291;37.520;15.106;2023-07-29T02:29:19;100974.09;;;26.29;71.09
54556;BME280;57291;37.520;15.106;2023-07-29T02:31:46;100975.28;;;26.31;73.03
54556;BME280;57291;37.520;15.106;2023-07-29T02:34:14;100976.88;;;26.25;74.98
54556;BME280;57291;37.520;15.106;2023-07-29T02:36:42;100980.84;;;26.13;75.17
54556;BME280;57291;37.520;15.106;2023-07-29T02:39:09;100975.28;;;26.13;75.17
54556;BME280;57291;37.520;15.106;2023-07-29T02:41:36;100978.84;;;26.07;75.00
54556;BME280;57291;37.520;15.106;2023-07-29T02:44:05;100986.38;;;26.03;75.49
54556;BME280;57291;37.520;15.106;2023-07-29T02:46:32;100986.81;;;26.01;75.61
54556;BME280;57291;37.520;15.106;2023-07-29T02:49:02;100975.66;;;26.01;75.42
54556;BME280;57291;37.520;15.106;2023-07-29T02:51:30;100972.47;;;26.03;76.01
54556;BME280;57291;37.520;15.106;2023-07-29T02:53:57;100976.88;;;26.04;76.56
54556;BME280;57291;37.520;15.106;2023-07-29T02:56:24;100975.66;;;26.05;76.98
54556;BME280;57291;37.520;15.106;2023-07-29T02:58:51;100974.88;;;26.04;77.94
54556;BME280;57291;37.520;15.106;2023-07-29T03:01:19;100970.09;;;26.01;76.77
54556;BME280;57291;37.520;15.106;2023-07-29T03:03:46;100978.03;;;25.99;75.74
54556;BME280;57291;37.520;15.106;2023-07-29T03:06:14;100971.66;;;25.99;75.11
54556;BME280;57291;37.520;15.106;2023-07-29T03:08:42;100969.28;;;25.97;74.72
54556;BME280;57291;37.520;15.106;2023-07-29T03:11:12;100966.88;;;25.95;75.32
54556;BME280;57291;37.520;15.106;2023-07-29T03:13:39;100973.25;;;25.96;76.12
54556;BME280;57291;37.520;15.106;2023-07-29T03:16:11;100966.09;;;25.95;76.42
54556;BME280;57291;37.520;15.106;2023-07-29T03:18:39;100977.25;;;25.99;77.53
54556;BME280;57291;37.520;15.106;2023-07-29T03:21:08;100963.31;;;25.99;78.83
54556;BME280;57291;37.520;15.106;2023-07-29T03:23:36;100964.91;;;25.96;79.09
54556;BME280;57291;37.520;15.106;2023-07-29T03:26:04;100961.31;;;25.85;77.94
54556;BME280;57291;37.520;15.106;2023-07-29T03:28:39;100972.41;;;25.78;77.20
54556;BME280;57291;37.520;15.106;2023-07-29T03:31:06;100977.16;;;25.73;77.17
54556;BME280;57291;37.520;15.106;2023-07-29T03:33:34;100969.97;;;25.65;77.08
54556;BME280;57291;37.520;15.106;2023-07-29T03:36:01;100973.94;;;25.61;77.08
54556;BME280;57291;37.520;15.106;2023-07-29T03:38:29;100970.72;;;25.59;77.18
54556;BME280;57291;37.520;15.106;2023-07-29T03:40:56;100979.47;;;25.54;77.29
54556;BME280;57291;37.520;15.106;2023-07-29T03:43:24;100976.69;;;25.54;78.14
54556;BME280;57291;37.520;15.106;2023-07-29T03:45:53;100970.72;;;25.59;78.73
54556;BME280;57291;37.520;15.106;2023-07-29T03:48:20;100985.06;;;25.61;78.34
54556;BME280;57291;37.520;15.106;2023-07-29T03:50:47;100985.06;;;25.61;77.60
54556;BME280;57291;37.520;15.106;2023-07-29T03:53:14;100987.06;;;25.60;77.57
54556;BME280;57291;37.520;15.106;2023-07-29T03:55:42;100980.28;;;25.58;77.24
54556;BME280;57291;37.520;15.106;2023-07-29T03:58:09;100971.50;;;25.56;77.63
54556;BME280;57291;37.520;15.106;2023-07-29T04:00:36;100966.72;;;25.53;76.97
54556;BME280;57291;37.520;15.106;2023-07-29T04:03:03;100968.34;;;25.54;76.80
54556;BME280;57291;37.520;15.106;2023-07-29T04:05:32;100967.53;;;25.53;76.88
54556;BME280;57291;37.520;15.106;2023-07-29T04:07:59;100980.28;;;25.58;77.31
54556;BME280;57291;37.520;15.106;2023-07-29T04:10:26;100970.72;;;25.55;77.56
54556;BME280;57291;37.520;15.106;2023-07-29T04:12:54;100984.28;;;25.64;78.22
54556;BME280;57291;37.520;15.106;2023-07-29T04:15:21;100991.88;;;25.70;78.95
54556;BME280;57291;37.520;15.106;2023-07-29T04:17:48;100985.88;;;25.68;79.28
54556;BME280;57291;37.520;15.106;2023-07-29T04:20:15;100981.09;;;25.69;78.77
54556;BME280;57291;37.520;15.106;2023-07-29T04:22:42;100989.47;;;25.69;79.41
54556;BME280;57291;37.520;15.106;2023-07-29T04:25:09;100997.81;;;25.72;79.63
54556;BME280;57291;37.520;15.106;2023-07-29T04:27:36;101001.81;;;25.75;79.37
54556;BME280;57291;37.520;15.106;2023-07-29T04:30:04;101007.78;;;25.77;79.74
54556;BME280;57291;37.520;15.106;2023-07-29T04:32:31;101005.44;;;25.83;80.32
54556;BME280;57291;37.520;15.106;2023-07-29T04:34:59;101015.00;;;25.92;79.66
54556;BME280;57291;37.520;15.106;2023-07-29T04:37:26;101013.84;;;25.97;79.63
54556;BME280;57291;37.520;15.106;2023-07-29T04:39:53;101000.72;;;26.05;79.33
54556;BME280;57291;37.520;15.106;2023-07-29T04:42:20;101005.09;;;26.09;78.73
54556;BME280;57291;37.520;15.106;2023-07-29T04:44:48;101003.13;;;26.06;78.96
54556;BME280;57291;37.520;15.106;2023-07-29T04:47:15;100999.94;;;26.11;77.77
54556;BME280;57291;37.520;15.106;2023-07-29T04:49:43;100999.56;;;26.20;78.09
54556;BME280;57291;37.520;15.106;2023-07-29T04:52:10;101015.09;;;26.28;77.19
54556;BME280;57291;37.520;15.106;2023-07-29T04:54:37;101016.28;;;26.31;76.75
54556;BME280;57291;37.520;15.106;2023-07-29T04:57:04;101016.31;;;26.41;77.21
54556;BME280;57291;37.520;15.106;2023-07-29T04:59:32;101017.16;;;26.53;76.33
54556;BME280;57291;37.520;15.106;2023-07-29T05:01:59;101024.31;;;26.68;73.82
54556;BME280;57291;37.520;15.106;2023-07-29T05:04:26;101022.72;;;26.78;74.15
54556;BME280;57291;37.520;15.106;2023-07-29T05:06:53;101024.69;;;26.99;74.07
54556;BME280;57291;37.520;15.106;2023-07-29T05:09:20;101037.03;;;27.19;73.37
54556;BME280;57291;37.520;15.106;2023-07-29T05:11:48;101037.78;;;27.38;71.99
54556;BME280;57291;37.520;15.106;2023-07-29T05:14:17;101044.91;;;27.56;70.79
54556;BME280;57291;37.520;15.106;2023-07-29T05:16:44;101043.22;;;27.80;68.65
54556;BME280;57291;37.520;15.106;2023-07-29T05:19:11;101049.09;;;28.08;67.27
54556;BME280;57291;37.520;15.106;2023-07-29T05:21:39;101041.38;;;28.29;65.29
54556;BME280;57291;37.520;15.106;2023-07-29T05:24:06;101043.34;;;28.40;63.20
54556;BME280;57291;37.520;15.106;2023-07-29T05:26:33;101054.50;;;28.43;62.36
54556;BME280;57291;37.520;15.106;2023-07-29T05:29:01;101047.59;;;28.55;62.21
54556;BME280;57291;37.520;15.106;2023-07-29T05:31:29;101052.22;;;28.80;59.86
54556;BME280;57291;37.520;15.106;2023-07-29T05:33:56;101049.88;;;29.19;59.63
54556;BME280;57291;37.520;15.106;2023-07-29T05:36:23;101061.38;;;29.66;58.29
54556;BME280;57291;37.520;15.106;2023-07-29T05:38:52;101063.63;;;30.09;56.89
54556;BME280;57291;37.520;15.106;2023-07-29T05:41:22;101056.91;;;30.34;56.60
54556;BME280;57291;37.520;15.106;2023-07-29T05:43:49;101056.97;;;31.04;54.08
54556;BME280;57291;37.520;15.106;2023-07-29T05:46:16;101063.66;;;31.54;53.29
54556;BME280;57291;37.520;15.106;2023-07-29T05:48:43;101061.06;;;31.83;52.44
54556;BME280;57291;37.520;15.106;2023-07-29T05:51:11;101067.28;;;31.94;51.55
54556;BME280;57291;37.520;15.106;2023-07-29T05:53:39;101069.63;;;32.16;51.48
54556;BME280;57291;37.520;15.106;2023-07-29T05:56:06;101072.25;;;32.23;50.88
54556;BME280;57291;37.520;15.106;2023-07-29T05:58:33;101073.16;;;32.36;51.55
54556;BME280;57291;37.520;15.106;2023-07-29T06:01:00;101078.66;;;32.23;51.41
54556;BME280;57291;37.520;15.106;2023-07-29T06:03:28;101084.91;;;32.31;51.85
54556;BME280;57291;37.520;15.106;2023-07-29T06:05:55;101082.22;;;32.08;52.69
54556;BME280;57291;37.520;15.106;2023-07-29T06:08:23;101082.03;;;32.18;52.54
54556;BME280;57291;37.520;15.106;2023-07-29T06:10:50;101083.84;;;32.45;52.68
54556;BME280;57291;37.520;15.106;2023-07-29T06:13:17;101090.69;;;32.60;52.42
54556;BME280;57291;37.520;15.106;2023-07-29T06:15:44;101091.84;;;32.46;52.97
54556;BME280;57291;37.520;15.106;2023-07-29T06:18:12;101093.25;;;32.55;52.02
54556;BME280;57291;37.520;15.106;2023-07-29T06:20:39;101088.06;;;32.69;50.44
54556;BME280;57291;37.520;15.106;2023-07-29T06:23:08;101086.22;;;32.79;50.60
54556;BME280;57291;37.520;15.106;2023-07-29T06:25:35;101084.22;;;32.96;50.13
54556;BME280;57291;37.520;15.106;2023-07-29T06:28:02;101081.47;;;32.92;48.12
54556;BME280;57291;37.520;15.106;2023-07-29T06:30:29;101080.16;;;32.97;49.35
54556;BME280;57291;37.520;15.106;2023-07-29T06:32:56;101088.66;;;32.93;49.49
54556;BME280;57291;37.520;15.106;2023-07-29T06:35:23;101083.59;;;33.05;47.78
54556;BME280;57291;37.520;15.106;2023-07-29T06:37:50;101083.91;;;33.23;46.87
54556;BME280;57291;37.520;15.106;2023-07-29T06:40:18;101087.25;;;33.18;47.55
54556;BME280;57291;37.520;15.106;2023-07-29T06:42:45;101087.47;;;33.11;47.58
54556;BME280;57291;37.520;15.106;2023-07-29T06:45:12;101074.97;;;32.63;48.64
54556;BME280;57291;37.520;15.106;2023-07-29T06:47:39;101080.50;;;32.83;49.62
54556;BME280;57291;37.520;15.106;2023-07-29T06:50:07;101088.06;;;32.69;50.05
54556;BME280;57291;37.520;15.106;2023-07-29T06:52:34;101082.78;;;32.55;50.79
54556;BME280;57291;37.520;15.106;2023-07-29T06:55:01;101084.28;;;32.60;50.48
54556;BME280;57291;37.520;15.106;2023-07-29T06:57:29;101093.56;;;32.40;50.54
54556;BME280;57291;37.520;15.106;2023-07-29T06:59:56;101085.28;;;32.33;51.53
54556;BME280;57291;37.520;15.106;2023-07-29T07:02:23;101094.34;;;32.41;51.28
54556;BME280;57291;37.520;15.106;2023-07-29T07:04:50;101089.72;;;32.67;51.09
54556;BME280;57291;37.520;15.106;2023-07-29T07:07:17;101095.91;;;32.62;51.72
54556;BME280;57291;37.520;15.106;2023-07-29T07:09:44;101098.88;;;32.55;51.39
54556;BME280;57291;37.520;15.106;2023-07-29T07:12:12;101094.72;;;32.43;51.59
54556;BME280;57291;37.520;15.106;2023-07-29T07:14:39;101093.88;;;32.26;52.93
54556;BME280;57291;37.520;15.106;2023-07-29T07:17:06;101093.13;;;32.06;53.75
54556;BME280;57291;37.520;15.106;2023-07-29T07:19:37;101087.34;;;32.13;53.34
54556;BME280;57291;37.520;15.106;2023-07-29T07:22:04;101096.66;;;32.10;53.60
54556;BME280;57291;37.520;15.106;2023-07-29T07:24:31;101095.38;;;31.94;54.21
54556;BME280;57291;37.520;15.106;2023-07-29T07:26:58;101089.41;;;31.72;55.53
54556;BME280;57291;37.520;15.106;2023-07-29T07:29:25;101094.72;;;31.67;55.59
54556;BME280;57291;37.520;15.106;2023-07-29T07:31:54;101094.88;;;31.60;56.59
54556;BME280;57291;37.520;15.106;2023-07-29T07:34:21;101092.75;;;31.84;56.34
54556;BME280;57291;37.520;15.106;2023-07-29T07:36:49;101100.97;;;32.14;55.62
54556;BME280;57291;37.520;15.106;2023-07-29T07:39:16;101095.81;;;32.29;55.32
54556;BME280;57291;37.520;15.106;2023-07-29T07:41:44;101098.31;;;31.67;58.14
54556;BME280;57291;37.520;15.106;2023-07-29T07:44:11;101094.59;;;31.94;57.50
54556;BME280;57291;37.520;15.106;2023-07-29T07:46:42;101082.81;;;31.39;59.21
54556;BME280;57291;37.520;15.106;2023-07-29T07:49:09;101084.03;;;31.58;59.31
54556;BME280;57291;37.520;15.106;2023-07-29T07:51:36;101081.78;;;31.29;59.52
54556;BME280;57291;37.520;15.106;2023-07-29T07:54:03;101087.63;;;31.15;60.13
54556;BME280;57291;37.520;15.106;2023-07-29T07:56:30;101087.31;;;31.10;59.13
54556;BME280;57291;37.520;15.106;2023-07-29T07:58:58;101087.75;;;31.31;57.05
54556;BME280;57291;37.520;15.106;2023-07-29T08:01:25;101087.06;;;31.47;56.78
54556;BME280;57291;37.520;15.106;2023-07-29T08:03:52;101078.09;;;31.56;56.73
54556;BME280;57291;37.520;15.106;2023-07-29T08:06:19;101079.53;;;31.21;56.81
54556;BME280;57291;37.520;15.106;2023-07-29T08:08:47;101074.91;;;31.11;57.15
54556;BME280;57291;37.520;15.106;2023-07-29T08:11:14;101087.28;;;31.37;57.09
54556;BME280;57291;37.520;15.106;2023-07-29T08:13:41;101073.47;;;31.22;56.14
54556;BME280;57291;37.520;15.106;2023-07-29T08:16:08;101071.78;;;30.81;57.24
54556;BME280;57291;37.520;15.106;2023-07-29T08:18:36;101080.22;;;30.81;59.94
54556;BME280;57291;37.520;15.106;2023-07-29T08:21:03;101071.56;;;30.69;61.96
54556;BME280;57291;37.520;15.106;2023-07-29T08:23:31;101073.38;;;30.55;63.44
54556;BME280;57291;37.520;15.106;2023-07-29T08:26:00;101071.56;;;30.69;63.80
54556;BME280;57291;37.520;15.106;2023-07-29T08:28:31;101079.78;;;30.83;62.32
54556;BME280;57291;37.520;15.106;2023-07-29T08:30:58;101071.66;;;31.12;60.47
54556;BME280;57291;37.520;15.106;2023-07-29T08:33:27;101070.72;;;31.42;59.49
54556;BME280;57291;37.520;15.106;2023-07-29T08:35:54;101070.84;;;31.35;59.52
54556;BME280;57291;37.520;15.106;2023-07-29T08:38:22;101070.22;;;31.47;58.61
54556;BME280;57291;37.520;15.106;2023-07-29T08:40:52;101065.97;;;31.39;56.95
54556;BME280;57291;37.520;15.106;2023-07-29T08:43:33;101072.34;;;31.20;58.51
54556;BME280;57291;37.520;15.106;2023-07-29T08:46:01;101066.50;;;30.87;58.52
54556;BME280;57291;37.520;15.106;2023-07-29T08:48:42;101070.72;;;30.72;59.41
54556;BME280;57291;37.520;15.106;2023-07-29T08:51:11;101065.28;;;30.61;61.04
54556;BME280;57291;37.520;15.106;2023-07-29T08:53:39;101068.28;;;30.74;61.53
54556;BME280;57291;37.520;15.106;2023-07-29T08:56:07;101063.28;;;30.61;61.89
54556;BME280;57291;37.520;15.106;2023-07-29T08:58:35;101078.38;;;30.44;61.75
54556;BME280;57291;37.520;15.106;2023-07-29T09:01:03;101076.81;;;30.40;62.17
54556;BME280;57291;37.520;15.106;2023-07-29T09:03:30;101075.31;;;30.35;63.35
54556;BME280;57291;37.520;15.106;2023-07-29T09:05:58;101062.03;;;30.63;60.33
54556;BME280;57291;37.520;15.106;2023-07-29T09:08:26;101074.38;;;30.69;61.37
54556;BME280;57291;37.520;15.106;2023-07-29T09:10:55;101074.56;;;30.31;62.16
54556;BME280;57291;37.520;15.106;2023-07-29T09:13:22;101071.75;;;30.58;61.88
54556;BME280;57291;37.520;15.106;2023-07-29T09:15:54;101081.91;;;30.21;64.22
54556;BME280;57291;37.520;15.106;2023-07-29T09:18:22;101078.69;;;30.23;64.54
54556;BME280;57291;37.520;15.106;2023-07-29T09:20:50;101083.72;;;30.04;63.49
54556;BME280;57291;37.520;15.106;2023-07-29T09:23:17;101081.00;;;29.97;63.66
54556;BME280;57291;37.520;15.106;2023-07-29T09:25:46;101076.16;;;30.01;64.91
54556;BME280;57291;37.520;15.106;2023-07-29T09:28:16;101070.31;;;29.88;64.61
54556;BME280;57291;37.520;15.106;2023-07-29T09:30:45;101076.09;;;30.05;62.63
54556;BME280;57291;37.520;15.106;2023-07-29T09:33:13;101068.97;;;30.27;62.49
54556;BME280;57291;37.520;15.106;2023-07-29T09:35:40;101073.50;;;30.21;64.09
54556;BME280;57291;37.520;15.106;2023-07-29T09:38:07;101070.56;;;30.01;63.58
54556;BME280;57291;37.520;15.106;2023-07-29T09:40:36;101077.78;;;29.99;63.22
54556;BME280;57291;37.520;15.106;2023-07-29T09:43:05;101076.91;;;29.71;65.15
54556;BME280;57291;37.520;15.106;2023-07-29T09:45:37;101075.34;;;29.70;63.89
54556;BME280;57291;37.520;15.106;2023-07-29T09:48:05;101084.56;;;30.01;59.87
54556;BME280;57291;37.520;15.106;2023-07-29T09:51:11;101080.91;;;30.35;59.00
54556;BME280;57291;37.520;15.106;2023-07-29T09:53:50;101091.84;;;30.26;58.23
54556;BME280;57291;37.520;15.106;2023-07-29T09:56:17;101094.09;;;30.04;59.73
54556;BME280;57291;37.520;15.106;2023-07-29T09:58:52;101088.44;;;29.77;59.17
54556;BME280;57291;37.520;15.106;2023-07-29T10:01:19;101092.22;;;29.59;64.19
54556;BME280;57291;37.520;15.106;2023-07-29T10:03:47;101095.84;;;29.60;66.84
54556;BME280;57291;37.520;15.106;2023-07-29T10:06:15;101087.38;;;29.67;67.07
54556;BME280;57291;37.520;15.106;2023-07-29T10:08:44;101079.94;;;29.50;68.39
54556;BME280;57291;37.520;15.106;2023-07-29T10:11:12;101085.00;;;29.65;65.70
54556;BME280;57291;37.520;15.106;2023-07-29T10:13:40;101083.09;;;30.20;64.72
54556;BME280;57291;37.520;15.106;2023-07-29T10:16:09;101085.72;;;30.34;64.08
54556;BME280;57291;37.520;15.106;2023-07-29T10:18:36;101082.22;;;29.96;60.58
54556;BME280;57291;37.520;15.106;2023-07-29T10:21:05;101088.66;;;29.93;65.88
54556;BME280;57291;37.520;15.106;2023-07-29T10:23:42;101080.47;;;30.06;61.88
54556;BME280;57291;37.520;15.106;2023-07-29T10:26:11;101090.22;;;30.28;61.06
54556;BME280;57291;37.520;15.106;2023-07-29T10:28:41;101080.09;;;30.04;66.10
54556;BME280;57291;37.520;15.106;2023-07-29T10:31:13;101082.31;;;30.20;65.45
54556;BME280;57291;37.520;15.106;2023-07-29T10:33:42;101068.78;;;30.42;62.21
54556;BME280;57291;37.520;15.106;2023-07-29T10:36:11;101071.28;;;30.36;62.80
54556;BME280;57291;37.520;15.106;2023-07-29T10:38:39;101077.94;;;30.19;62.60
54556;BME280;57291;37.520;15.106;2023-07-29T10:41:07;101067.31;;;30.33;61.53
54556;BME280;57291;37.520;15.106;2023-07-29T10:43:36;101057.63;;;30.38;61.35
54556;BME280;57291;37.520;15.106;2023-07-29T10:46:22;101059.97;;;30.67;55.71
54556;BME280;57291;37.520;15.106;2023-07-29T10:51:24;101058.56;;;30.82;54.22
54556;BME280;57291;37.520;15.106;2023-07-29T10:56:40;101064.88;;;30.86;52.01
54556;BME280;57291;37.520;15.106;2023-07-29T11:01:40;101064.06;;;31.33;49.25
54556;BME280;57291;37.520;15.106;2023-07-29T11:09:55;101050.59;;;31.24;48.24
54556;BME280;57291;37.520;15.106;2023-07-29T11:12:46;101040.34;;;31.14;48.81
54556;BME280;57291;37.520;15.106;2023-07-29T11:15:28;101049.00;;;31.23;47.26
54556;BME280;57291;37.520;15.106;2023-07-29T11:18:00;101037.16;;;31.55;46.13
54556;BME280;57291;37.520;15.106;2023-07-29T11:20:32;101033.47;;;31.78;44.87
54556;BME280;57291;37.520;15.106;2023-07-29T11:23:02;101027.44;;;31.80;46.01
54556;BME280;57291;37.520;15.106;2023-07-29T11:25:30;101015.41;;;31.79;45.58
54556;BME280;57291;37.520;15.106;2023-07-29T11:27:59;101022.81;;;31.89;43.50
54556;BME280;57291;37.520;15.106;2023-07-29T11:30:39;101019.78;;;32.00;42.37
54556;BME280;57291;37.520;15.106;2023-07-29T11:33:07;101015.13;;;32.10;42.85
54556;BME280;57291;37.520;15.106;2023-07-29T11:35:35;101022.25;;;32.14;43.15
54556;BME280;57291;37.520;15.106;2023-07-29T11:38:02;101021.47;;;32.14;44.61
54556;BME280;57291;37.520;15.106;2023-07-29T11:40:29;101010.81;;;31.85;45.43
54556;BME280;57291;37.520;15.106;2023-07-29T11:42:56;101015.91;;;31.74;46.04
54556;BME280;57291;37.520;15.106;2023-07-29T11:45:24;101012.41;;;31.50;46.21
54556;BME280;57291;37.520;15.106;2023-07-29T11:48:06;101015.84;;;31.58;45.35
54556;BME280;57291;37.520;15.106;2023-07-29T11:50:34;101010.19;;;31.77;44.36
54556;BME280;57291;37.520;15.106;2023-07-29T11:53:02;101011.44;;;31.76;43.89
54556;BME280;57291;37.520;15.106;2023-07-29T11:55:30;101016.00;;;32.07;44.23
54556;BME280;57291;37.520;15.106;2023-07-29T11:57:57;101000.03;;;32.20;42.11
54556;BME280;57291;37.520;15.106;2023-07-29T12:00:25;101002.41;;;32.05;47.42
54556;BME280;57291;37.520;15.106;2023-07-29T12:02:53;101007.03;;;31.95;46.38
54556;BME280;57291;37.520;15.106;2023-07-29T12:05:22;101007.31;;;31.81;47.70
54556;BME280;57291;37.520;15.106;2023-07-29T12:07:50;101010.59;;;31.60;48.81
54556;BME280;57291;37.520;15.106;2023-07-29T12:10:17;101017.06;;;31.57;50.32
54556;BME280;57291;37.520;15.106;2023-07-29T12:12:46;101008.44;;;31.47;52.13
54556;BME280;57291;37.520;15.106;2023-07-29T12:15:22;101014.66;;;31.15;56.26
54556;BME280;57291;37.520;15.106;2023-07-29T12:17:52;101014.78;;;31.08;55.97
54556;BME280;57291;37.520;15.106;2023-07-29T12:20:20;101019.41;;;31.18;55.30
54556;BME280;57291;37.520;15.106;2023-07-29T12:22:58;101019.59;;;30.88;54.51
54556;BME280;57291;37.520;15.106;2023-07-29T12:25:26;101022.19;;;30.98;54.63
54556;BME280;57291;37.520;15.106;2023-07-29T12:27:54;101019.13;;;30.89;55.79
54556;BME280;57291;37.520;15.106;2023-07-29T12:30:23;101018.81;;;30.60;53.09
54556;BME280;57291;37.520;15.106;2023-07-29T12:32:53;101010.00;;;30.07;53.54
54556;BME280;57291;37.520;15.106;2023-07-29T12:35:21;101016.50;;;29.70;54.41
54556;BME280;57291;37.520;15.106;2023-07-29T12:37:58;101011.59;;;29.81;55.29
54556;BME280;57291;37.520;15.106;2023-07-29T12:40:26;101017.59;;;29.80;55.02
54556;BME280;57291;37.520;15.106;2023-07-29T12:42:54;101014.34;;;30.12;56.06
54556;BME280;57291;37.520;15.106;2023-07-29T12:45:22;101015.69;;;30.00;56.13
54556;BME280;57291;37.520;15.106;2023-07-29T12:47:56;101017.53;;;29.83;57.42
54556;BME280;57291;37.520;15.106;2023-07-29T12:50:23;101017.69;;;29.73;58.55
54556;BME280;57291;37.520;15.106;2023-07-29T12:52:50;101015.22;;;29.78;59.36
54556;BME280;57291;37.520;15.106;2023-07-29T12:55:17;101010.72;;;29.84;59.08
54556;BME280;57291;37.520;15.106;2023-07-29T12:57:49;101020.09;;;29.71;58.01
54556;BME280;57291;37.520;15.106;2023-07-29T13:00:17;101018.72;;;29.52;58.63
54556;BME280;57291;37.520;15.106;2023-07-29T13:02:44;101019.84;;;29.58;58.62
54556;BME280;57291;37.520;15.106;2023-07-29T13:05:12;101021.53;;;29.48;58.87
54556;BME280;57291;37.520;15.106;2023-07-29T13:07:39;101014.66;;;29.60;60.17
54556;BME280;57291;37.520;15.106;2023-07-29T13:10:08;101010.75;;;29.81;58.93
54556;BME280;57291;37.520;15.106;2023-07-29T13:12:36;101012.50;;;30.02;59.98